Time;durP1;ratioP1;P1;durP2;ratioP2;P2;SDS_P1;SDS_P2;PMS_P1;PMS_P2;Temp;Humidity;BMP_temperature;BMP_pressure;BME280_temperature;BME280_humidity;BME280_pressure;Samples;Min_cycle;Max_cycle;Signal;HPM_P1;HPM_P2
2022/11/04 00:02:47;;;;;;;16.50;8.48;;;;;;;;;;10401303;28;20050;-57
2022/11/04 00:13:06;;;;;;;19.70;8.90;;;;;;;;;;10374195;28;20042;-57
2022/11/04 00:18:07;;;;;;;18.33;8.75;;;;;;;;;;10375717;28;20033;-57
2022/11/04 00:28:43;;;;;;;20.02;10.20;;;;;;;;;;10375958;28;20042;-57
2022/11/04 00:33:44;;;;;;;25.77;10.52;;;;;;;;;;10376008;28;20073;-57
2022/11/04 00:38:44;;;;;;;19.27;11.18;;;;;;;;;;10374088;28;20112;-57
2022/11/04 00:43:45;;;;;;;18.17;10.75;;;;;;;;;;10404830;28;20036;-56
2022/11/04 00:48:45;;;;;;;19.63;11.27;;;;;;;;;;10388913;28;20372;-56
2022/11/04 00:53:45;;;;;;;18.67;11.77;;;;;;;;;;10386566;28;20037;-56
2022/11/04 00:58:45;;;;;;;18.83;12.07;;;;;;;;;;10401996;28;20396;-56
2022/11/04 01:03:50;;;;;;;21.23;11.70;;;;;;;;;;10390715;28;20029;-57
2022/11/04 01:09:00;;;;;;;24.27;12.02;;;;;;;;;;10398760;28;20073;-57
2022/11/04 01:14:01;;;;;;;17.70;11.90;;;;;;;;;;10368641;28;20473;-57
2022/11/04 01:19:01;;;;;;;19.35;12.30;;;;;;;;;;10391335;28;20029;-56
2022/11/04 01:24:01;;;;;;;21.20;11.57;;;;;;;;;;10414902;28;20508;-56
2022/11/04 01:29:02;;;;;;;17.60;11.20;;;;;;;;;;10401330;28;20570;-57
2022/11/04 01:34:02;;;;;;;19.30;11.37;;;;;;;;;;10385011;28;20060;-57
2022/11/04 01:39:02;;;;;;;14.88;10.52;;;;;;;;;;10391758;28;20386;-56
2022/11/04 01:44:23;;;;;;;14.97;10.17;;;;;;;;;;10388971;28;20554;-57
2022/11/04 01:49:29;;;;;;;16.55;10.68;;;;;;;;;;10390600;28;20033;-57
2022/11/04 01:54:30;;;;;;;15.07;10.00;;;;;;;;;;10377100;28;20223;-57
2022/11/04 01:59:35;;;;;;;13.82;9.60;;;;;;;;;;10384687;28;20244;-57
2022/11/04 02:04:36;;;;;;;13.93;9.70;;;;;;;;;;11193534;23;20092;-57
2022/11/04 02:09:37;;;;;;;18.30;9.63;;;;;;;;;;10404304;28;20087;-57
2022/11/04 02:14:37;;;;;;;14.57;9.27;;;;;;;;;;10405505;28;20037;-58
2022/11/04 02:19:37;;;;;;;11.82;7.95;;;;;;;;;;10391553;28;20048;-58
2022/11/04 02:24:55;;;;;;;10.65;7.85;;;;;;;;;;10413677;28;20033;-57
2022/11/04 02:30:02;;;;;;;11.07;8.30;;;;;;;;;;10412663;28;20029;-57
2022/11/04 02:35:18;;;;;;;13.00;8.55;;;;;;;;;;10399432;28;20383;-57
2022/11/04 02:40:34;;;;;;;12.50;7.45;;;;;;;;;;10391473;28;20088;-57
2022/11/04 02:45:37;;;;;;;9.48;6.68;;;;;;;;;;10387691;28;20087;-57
2022/11/04 02:50:44;;;;;;;9.95;7.15;;;;;;;;;;10398339;28;20021;-55
2022/11/04 02:55:48;;;;;;;10.05;6.57;;;;;;;;;;10406394;28;20083;-55
2022/11/04 03:00:49;;;;;;;11.98;6.65;;;;;;;;;;10398829;28;20405;-54
2022/11/04 03:05:51;;;;;;;11.60;7.05;;;;;;;;;;10388341;28;20188;-55
2022/11/04 03:10:53;;;;;;;10.98;6.72;;;;;;;;;;10402567;28;20025;-57
2022/11/04 03:15:57;;;;;;;7.72;5.72;;;;;;;;;;10411315;28;20037;-57
2022/11/04 03:20:59;;;;;;;11.25;5.90;;;;;;;;;;10400160;28;20100;-57
2022/11/04 03:41:16;;;;;;;7.78;5.85;;;;;;;;;;10406930;27;20644;-49
2022/11/04 03:46:16;;;;;;;10.35;5.97;;;;;;;;;;10380844;28;20034;-50
2022/11/04 03:51:17;;;;;;;7.93;5.20;;;;;;;;;;10399084;28;20457;-50
2022/11/04 03:56:32;;;;;;;5.95;4.95;;;;;;;;;;10372870;28;20030;-52
2022/11/04 04:01:38;;;;;;;5.78;4.82;;;;;;;;;;10379569;28;20453;-50
2022/11/04 04:06:40;;;;;;;7.03;5.32;;;;;;;;;;10373932;28;20022;-50
2022/11/04 04:11:52;;;;;;;5.95;4.95;;;;;;;;;;10378030;28;20109;-49
2022/11/04 04:16:53;;;;;;;5.68;4.57;;;;;;;;;;10367749;28;20033;-50
2022/11/04 04:22:07;;;;;;;6.28;4.45;;;;;;;;;;10391844;28;20030;-49
2022/11/04 04:32:28;;;;;;;6.20;4.10;;;;;;;;;;10368147;28;20481;-49
2022/11/04 04:37:29;;;;;;;5.70;4.35;;;;;;;;;;10378245;28;20393;-48
2022/11/04 04:47:50;;;;;;;5.47;4.40;;;;;;;;;;10356353;28;20030;-48
2022/11/04 04:52:51;;;;;;;4.47;3.95;;;;;;;;;;10352025;28;20030;-50
2022/11/04 04:57:52;;;;;;;6.30;4.53;;;;;;;;;;10352534;28;20030;-49
2022/11/04 05:02:52;;;;;;;4.40;3.75;;;;;;;;;;10362826;28;20377;-48
2022/11/04 05:07:52;;;;;;;5.38;3.90;;;;;;;;;;10351098;28;20160;-48
2022/11/04 05:18:11;;;;;;;4.30;3.83;;;;;;;;;;10362071;28;20038;-48
2022/11/04 05:23:12;;;;;;;3.27;2.97;;;;;;;;;;10345671;28;20030;-49
2022/11/04 05:28:12;;;;;;;6.38;3.85;;;;;;;;;;10342410;28;20484;-50
2022/11/04 05:33:13;;;;;;;3.70;2.93;;;;;;;;;;10342564;28;20026;-51
2022/11/04 05:38:13;;;;;;;4.32;3.40;;;;;;;;;;10336898;28;20066;-49
2022/11/04 05:43:13;;;;;;;4.15;3.10;;;;;;;;;;10355028;28;20041;-51
2022/11/04 05:48:13;;;;;;;3.80;2.83;;;;;;;;;;10353571;28;20167;-48
2022/11/04 05:53:14;;;;;;;4.28;3.03;;;;;;;;;;10342294;28;20346;-50
2022/11/04 05:58:14;;;;;;;4.15;3.30;;;;;;;;;;10354002;28;20034;-50
2022/11/04 06:03:14;;;;;;;6.45;3.00;;;;;;;;;;10332856;28;20034;-49
2022/11/04 06:08:14;;;;;;;3.87;3.30;;;;;;;;;;10344059;28;20049;-49
2022/11/04 06:13:15;;;;;;;3.97;3.33;;;;;;;;;;10366484;28;20037;-48
2022/11/04 06:18:15;;;;;;;4.25;3.15;;;;;;;;;;10348352;28;20031;-48
2022/11/04 06:23:15;;;;;;;3.37;2.90;;;;;;;;;;10346466;28;20446;-48
2022/11/04 06:28:16;;;;;;;5.20;3.53;;;;;;;;;;10360611;28;20045;-53
2022/11/04 06:33:16;;;;;;;4.47;3.65;;;;;;;;;;10331827;28;20470;-50
2022/11/04 06:38:17;;;;;;;6.38;2.92;;;;;;;;;;10330941;28;20045;-49
2022/11/04 06:43:17;;;;;;;11.18;3.83;;;;;;;;;;10343805;28;20382;-51
2022/11/04 06:48:17;;;;;;;9.70;5.23;;;;;;;;;;10339753;28;20033;-59
2022/11/04 06:53:17;;;;;;;21.92;7.10;;;;;;;;;;10343761;28;20041;-62
2022/11/04 06:58:18;;;;;;;9.32;5.47;;;;;;;;;;10341363;28;20044;-52
2022/11/04 07:03:18;;;;;;;9.53;5.80;;;;;;;;;;10332236;28;20031;-52
2022/11/04 07:08:18;;;;;;;13.03;5.43;;;;;;;;;;10351716;28;20482;-52
2022/11/04 07:13:19;;;;;;;12.20;5.82;;;;;;;;;;10329831;28;20479;-52
2022/11/04 07:18:19;;;;;;;13.23;5.63;;;;;;;;;;10332161;28;20049;-54
2022/11/04 07:23:20;;;;;;;12.23;5.10;;;;;;;;;;10363726;28;20034;-60
2022/11/04 07:28:21;;;;;;;10.23;4.75;;;;;;;;;;10357902;28;20389;-53
2022/11/04 07:33:21;;;;;;;8.35;4.25;;;;;;;;;;10351790;28;20379;-52
2022/11/04 07:38:22;;;;;;;11.30;4.75;;;;;;;;;;10346730;28;20050;-52
2022/11/04 07:43:22;;;;;;;9.37;4.30;;;;;;;;;;10364325;28;20045;-51
2022/11/04 07:48:22;;;;;;;6.18;4.38;;;;;;;;;;10336977;28;20033;-50
2022/11/04 07:53:22;;;;;;;8.60;4.30;;;;;;;;;;10351545;28;20023;-53
2022/11/04 07:58:24;;;;;;;8.03;4.30;;;;;;;;;;10349424;28;20066;-51
2022/11/04 08:03:24;;;;;;;7.90;4.22;;;;;;;;;;10336827;28;20509;-53
2022/11/04 08:08:25;;;;;;;6.73;4.00;;;;;;;;;;10353061;28;20030;-55
2022/11/04 08:13:27;;;;;;;7.25;3.97;;;;;;;;;;10352445;28;20444;-51
2022/11/04 08:18:27;;;;;;;5.45;3.60;;;;;;;;;;10353049;28;20109;-52
2022/11/04 08:23:27;;;;;;;5.30;3.57;;;;;;;;;;10370105;28;20025;-54
2022/11/04 08:28:28;;;;;;;8.73;3.77;;;;;;;;;;10370050;28;20477;-53
2022/11/04 08:33:30;;;;;;;10.38;3.67;;;;;;;;;;10364547;28;20034;-62
2022/11/04 08:38:30;;;;;;;5.80;3.42;;;;;;;;;;10352655;28;20122;-52
2022/11/04 08:43:30;;;;;;;7.88;3.58;;;;;;;;;;10367502;28;20102;-54
2022/11/04 08:48:32;;;;;;;4.10;2.92;;;;;;;;;;10351130;28;20519;-55
2022/11/04 08:53:32;;;;;;;7.05;3.47;;;;;;;;;;10331946;28;20025;-54
2022/11/04 08:58:33;;;;;;;7.78;3.38;;;;;;;;;;10356314;28;20026;-54
2022/11/04 09:03:36;;;;;;;7.15;3.70;;;;;;;;;;10336671;28;20060;-62
2022/11/04 09:08:38;;;;;;;6.13;3.38;;;;;;;;;;10335035;28;20041;-56
2022/11/04 09:13:38;;;;;;;6.50;3.47;;;;;;;;;;10310197;28;20030;-53
2022/11/04 09:18:39;;;;;;;7.32;3.15;;;;;;;;;;10339292;28;20028;-52
2022/11/04 09:23:39;;;;;;;6.43;3.42;;;;;;;;;;10326686;28;20087;-54
2022/11/04 09:28:40;;;;;;;4.22;2.67;;;;;;;;;;10327232;28;20038;-58
2022/11/04 09:33:40;;;;;;;8.32;3.03;;;;;;;;;;10325325;28;20034;-56
2022/11/04 09:38:41;;;;;;;3.63;2.83;;;;;;;;;;10340494;28;20113;-55
2022/11/04 09:43:57;;;;;;;4.57;3.08;;;;;;;;;;10344702;28;20069;-54
2022/11/04 09:49:00;;;;;;;3.20;2.80;;;;;;;;;;10334404;28;20030;-56
2022/11/04 09:54:03;;;;;;;6.00;2.83;;;;;;;;;;10325460;28;20034;-56
2022/11/04 09:59:04;;;;;;;5.63;3.10;;;;;;;;;;10328351;28;20022;-53
2022/11/04 10:04:23;;;;;;;6.07;2.80;;;;;;;;;;10327749;28;20026;-50
2022/11/04 10:09:23;;;;;;;3.13;2.53;;;;;;;;;;10319527;28;20113;-54
2022/11/04 10:14:40;;;;;;;3.30;2.50;;;;;;;;;;10321758;28;20023;-55
2022/11/04 10:19:53;;;;;;;9.10;2.50;;;;;;;;;;10317797;28;20105;-55
2022/11/04 10:24:56;;;;;;;3.50;2.50;;;;;;;;;;10322575;28;20602;-55
2022/11/04 10:30:02;;;;;;;5.88;2.55;;;;;;;;;;10326214;28;20038;-59
2022/11/04 10:35:11;;;;;;;3.58;2.20;;;;;;;;;;10327082;28;20026;-53
2022/11/04 10:40:20;;;;;;;4.03;2.17;;;;;;;;;;10317001;28;20481;-50
2022/11/04 10:45:25;;;;;;;4.15;2.47;;;;;;;;;;10325296;28;20038;-57
2022/11/04 10:50:33;;;;;;;2.20;2.00;;;;;;;;;;10343926;28;20022;-53
2022/11/04 10:55:33;;;;;;;;;;;;;;;;;;10341991;28;20384;-53
2022/11/04 11:00:35;;;;;;;3.35;2.00;;;;;;;;;;10327875;28;19920;-53
2022/11/04 11:05:35;;;;;;;2.90;2.13;;;;;;;;;;10344171;28;20097;-53
2022/11/04 11:10:36;;;;;;;4.17;2.00;;;;;;;;;;10329228;28;20097;-53
2022/11/04 11:15:37;;;;;;;5.10;2.08;;;;;;;;;;10319990;28;20033;-54
2022/11/04 11:20:39;;;;;;;2.10;1.90;;;;;;;;;;10331989;28;20381;-54
2022/11/04 11:25:48;;;;;;;5.25;1.70;;;;;;;;;;10337500;28;20109;-50
2022/11/04 11:30:48;;;;;;;3.60;1.73;;;;;;;;;;10315028;28;20030;-51
2022/11/04 11:35:54;;;;;;;4.10;2.15;;;;;;;;;;10323638;28;20041;-53
2022/11/04 11:41:05;;;;;;;1.50;1.40;;;;;;;;;;10327826;28;20133;-58
2022/11/04 11:46:06;;;;;;;2.10;1.48;;;;;;;;;;10332089;28;20033;-52
2022/11/04 11:51:06;;;;;;;3.47;1.80;;;;;;;;;;10335918;28;20552;-52
2022/11/04 11:56:09;;;;;;;2.05;1.63;;;;;;;;;;10337442;28;20101;-59
2022/11/04 12:01:31;;;;;;;2.05;1.40;;;;;;;;;;10331300;28;20041;-53
2022/11/04 12:06:47;;;;;;;1.23;1.10;;;;;;;;;;10332126;28;20034;-54
2022/11/04 12:11:53;;;;;;;2.38;1.42;;;;;;;;;;10329241;28;20026;-54
2022/11/04 12:17:08;;;;;;;1.55;1.30;;;;;;;;;;10337421;28;20025;-51
2022/11/04 12:22:32;;;;;;;3.78;1.10;;;;;;;;;;10311441;28;20031;-51
2022/11/04 12:27:49;;;;;;;1.48;1.38;;;;;;;;;;10328517;28;20026;-55
2022/11/04 12:33:28;;;;;;;2.00;1.23;;;;;;;;;;10328573;28;20030;-53
2022/11/04 12:38:31;;;;;;;2.58;0.95;;;;;;;;;;10180442;29;20171;-53
2022/11/04 12:44:00;;;;;;;2.92;1.42;;;;;;;;;;10179175;29;20075;-55
2022/11/04 12:49:19;;;;;;;2.38;1.20;;;;;;;;;;10149161;29;20048;-52
2022/11/04 12:54:22;;;;;;;1.40;1.23;;;;;;;;;;10172184;29;20126;-55
2022/11/04 12:59:34;;;;;;;4.53;1.10;;;;;;;;;;10172424;29;20087;-55
2022/11/04 13:04:37;;;;;;;1.52;1.30;;;;;;;;;;10160789;29;20051;-54
2022/11/04 13:09:44;;;;;;;4.18;1.40;;;;;;;;;;10297117;28;20068;-54
2022/11/04 13:14:50;;;;;;;3.13;1.30;;;;;;;;;;10326038;28;20440;-54
2022/11/04 13:19:52;;;;;;;1.10;1.00;;;;;;;;;;10317085;28;20034;-52
2022/11/04 13:24:59;;;;;;;3.00;0.98;;;;;;;;;;10319769;28;20105;-55
2022/11/04 13:30:05;;;;;;;2.60;1.63;;;;;;;;;;10328268;28;20130;-54
2022/11/04 13:35:25;;;;;;;2.05;1.30;;;;;;;;;;10322280;28;20039;-55
2022/11/04 13:40:27;;;;;;;1.02;1.00;;;;;;;;;;10329576;28;20046;-59
2022/11/04 13:45:27;;;;;;;2.92;1.00;;;;;;;;;;10317632;28;20078;-51
2022/11/04 13:50:50;;;;;;;1.95;1.00;;;;;;;;;;10310214;28;20587;-54
2022/11/04 13:55:51;;;;;;;3.22;1.30;;;;;;;;;;10330807;28;20037;-55
2022/11/04 14:01:09;;;;;;;2.30;1.02;;;;;;;;;;10313628;28;20390;-51
2022/11/04 14:06:10;;;;;;;1.73;1.05;;;;;;;;;;10311580;28;20046;-51
2022/11/04 14:11:10;;;;;;;3.75;1.20;;;;;;;;;;10315896;28;20031;-53
2022/11/04 14:16:12;;;;;;;6.07;1.25;;;;;;;;;;10314977;28;20034;-51
2022/11/04 14:21:14;;;;;;;2.95;1.27;;;;;;;;;;10323063;28;20042;-52
2022/11/04 14:26:16;;;;;;;6.40;1.17;;;;;;;;;;10309173;28;20038;-59
2022/11/04 14:31:35;;;;;;;5.18;1.20;;;;;;;;;;10305725;28;20029;-53
2022/11/04 14:36:39;;;;;;;1.67;1.05;;;;;;;;;;10335937;28;20097;-51
2022/11/04 14:41:39;;;;;;;9.63;1.65;;;;;;;;;;10316889;28;20026;-52
2022/11/04 14:46:42;;;;;;;3.60;1.45;;;;;;;;;;10325848;28;20514;-54
2022/11/04 14:51:43;;;;;;;1.92;1.08;;;;;;;;;;10327207;28;20027;-59
2022/11/04 14:56:43;;;;;;;5.82;1.60;;;;;;;;;;10323831;28;20034;-55
2022/11/04 15:01:43;;;;;;;2.22;1.20;;;;;;;;;;10353453;28;20022;-52
2022/11/04 15:06:51;;;;;;;5.97;1.50;;;;;;;;;;10330385;28;20096;-56
2022/11/04 15:17:30;;;;;;;3.85;1.55;;;;;;;;;;10301069;28;20465;-49
2022/11/04 15:22:30;;;;;;;7.60;1.60;;;;;;;;;;10312185;28;20553;-55
2022/11/04 15:27:32;;;;;;;12.70;2.13;;;;;;;;;;10306315;28;20178;-50
2022/11/04 15:32:32;;;;;;;4.40;1.35;;;;;;;;;;10323165;28;20022;-50
2022/11/04 15:37:34;;;;;;;2.88;1.40;;;;;;;;;;10330203;28;20554;-60
2022/11/04 15:42:42;;;;;;;4.82;1.48;;;;;;;;;;10322817;28;20034;-59
2022/11/04 15:47:42;;;;;;;5.82;1.55;;;;;;;;;;10311292;28;20065;-55
2022/11/04 15:52:53;;;;;;;6.13;1.40;;;;;;;;;;10311479;28;20057;-58
2022/11/04 15:57:54;;;;;;;2.92;1.17;;;;;;;;;;10320431;28;20034;-51
2022/11/04 16:02:56;;;;;;;2.42;1.38;;;;;;;;;;10323917;28;20035;-54
2022/11/04 16:08:13;;;;;;;4.57;1.30;;;;;;;;;;10313274;28;20142;-51
2022/11/04 16:13:13;;;;;;;3.70;1.42;;;;;;;;;;10306058;28;20034;-51
2022/11/04 16:18:24;;;;;;;5.78;1.45;;;;;;;;;;10309902;28;20429;-54
2022/11/04 16:23:26;;;;;;;4.63;1.45;;;;;;;;;;10301094;28;20396;-54
2022/11/04 16:28:28;;;;;;;3.00;1.15;;;;;;;;;;10320318;28;20034;-53
2022/11/04 16:33:28;;;;;;;2.08;0.77;;;;;;;;;;10305835;28;20034;-55
2022/11/04 16:38:28;;;;;;;3.03;1.33;;;;;;;;;;10335458;28;20437;-49
2022/11/04 16:43:29;;;;;;;2.92;1.10;;;;;;;;;;10324126;28;20033;-51
2022/11/04 16:48:29;;;;;;;4.60;1.50;;;;;;;;;;10326670;28;20092;-50
2022/11/04 16:53:29;;;;;;;4.82;1.20;;;;;;;;;;10338166;28;20027;-49
2022/11/04 16:58:30;;;;;;;2.38;1.02;;;;;;;;;;10338210;28;20030;-51
2022/11/04 17:03:30;;;;;;;1.88;1.23;;;;;;;;;;10332041;28;20037;-50
2022/11/04 17:08:30;;;;;;;2.03;1.20;;;;;;;;;;10329591;28;20031;-49
2022/11/04 17:13:31;;;;;;;1.83;1.23;;;;;;;;;;10352624;28;20034;-52
2022/11/04 17:18:32;;;;;;;1.57;1.00;;;;;;;;;;10341456;28;20522;-51
2022/11/04 17:23:32;;;;;;;2.67;1.20;;;;;;;;;;10320742;28;20038;-50
2022/11/04 17:28:34;;;;;;;5.03;1.23;;;;;;;;;;10346341;28;20031;-50
2022/11/04 17:33:34;;;;;;;4.63;1.15;;;;;;;;;;10350621;28;20034;-49
2022/11/04 17:38:34;;;;;;;2.15;1.05;;;;;;;;;;10321911;28;20096;-51
2022/11/04 17:48:53;;;;;;;2.50;1.10;;;;;;;;;;10328744;28;20034;-51
2022/11/04 17:53:54;;;;;;;4.25;1.00;;;;;;;;;;10327965;28;20501;-49
2022/11/04 17:58:54;;;;;;;2.83;1.60;;;;;;;;;;10327283;28;20034;-50
2022/11/04 18:03:54;;;;;;;2.03;1.20;;;;;;;;;;10336885;28;20029;-53
2022/11/04 18:08:55;;;;;;;2.80;1.23;;;;;;;;;;10340720;28;20128;-51
2022/11/04 18:13:55;;;;;;;2.88;1.23;;;;;;;;;;10355768;28;20448;-51
2022/11/04 18:18:56;;;;;;;3.65;1.70;;;;;;;;;;10326957;28;20441;-52
2022/11/04 18:23:57;;;;;;;3.10;1.23;;;;;;;;;;10334188;28;20458;-51
2022/11/04 18:28:57;;;;;;;1.42;1.08;;;;;;;;;;10330289;28;20113;-53
2022/11/04 18:33:59;;;;;;;3.03;1.10;;;;;;;;;;10320559;28;20035;-50
2022/11/04 18:38:59;;;;;;;1.88;1.20;;;;;;;;;;10319155;28;20066;-49
2022/11/04 18:44:00;;;;;;;3.40;1.40;;;;;;;;;;10326614;28;20118;-49
2022/11/04 18:49:00;;;;;;;3.87;1.43;;;;;;;;;;10326208;28;20030;-51
2022/11/04 18:54:02;;;;;;;1.43;1.10;;;;;;;;;;10313552;28;20062;-50
2022/11/04 18:59:03;;;;;;;5.20;1.50;;;;;;;;;;10313810;28;20042;-52
2022/11/04 19:04:03;;;;;;;3.50;1.53;;;;;;;;;;10314281;28;20037;-52
2022/11/04 19:09:06;;;;;;;1.35;1.20;;;;;;;;;;10311154;28;20531;-51
2022/11/04 19:14:07;;;;;;;1.40;1.17;;;;;;;;;;10331571;28;20026;-53
2022/11/04 19:19:11;;;;;;;3.60;1.60;;;;;;;;;;10330094;28;20106;-50
2022/11/04 19:24:12;;;;;;;4.00;1.10;;;;;;;;;;10344385;28;20066;-51
2022/11/04 19:29:12;;;;;;;6.60;1.30;;;;;;;;;;10328109;28;20113;-53
2022/11/04 19:34:12;;;;;;;1.58;1.20;;;;;;;;;;10334078;28;20544;-51
2022/11/04 19:39:13;;;;;;;3.08;1.10;;;;;;;;;;10323066;28;20517;-53
2022/11/04 19:44:14;;;;;;;1.92;1.33;;;;;;;;;;10326786;28;20462;-51
2022/11/04 19:49:15;;;;;;;1.83;1.40;;;;;;;;;;10314269;28;20483;-53
2022/11/04 19:54:17;;;;;;;3.83;1.35;;;;;;;;;;10326929;28;20101;-53
2022/11/04 19:59:18;;;;;;;2.72;1.15;;;;;;;;;;10326511;28;20034;-53
2022/11/04 20:04:18;;;;;;;2.08;1.20;;;;;;;;;;10322476;28;20398;-53
2022/11/04 20:09:19;;;;;;;2.53;1.30;;;;;;;;;;10318933;28;20089;-51
2022/11/04 20:14:19;;;;;;;2.53;1.30;;;;;;;;;;10332550;28;20026;-54
2022/11/04 20:19:20;;;;;;;1.30;1.20;;;;;;;;;;10332434;28;20397;-53
2022/11/04 20:24:20;;;;;;;1.17;1.08;;;;;;;;;;10335264;28;20034;-50
2022/11/04 20:29:20;;;;;;;2.22;1.35;;;;;;;;;;10325487;28;20030;-49
2022/11/04 20:34:20;;;;;;;3.20;1.42;;;;;;;;;;10352458;28;20041;-52
2022/11/04 20:39:21;;;;;;;2.05;1.20;;;;;;;;;;10334305;28;20038;-53
2022/11/04 20:44:21;;;;;;;2.28;1.48;;;;;;;;;;10343751;28;20038;-50
2022/11/04 20:49:21;;;;;;;1.63;1.23;;;;;;;;;;10329658;28;20022;-50
2022/11/04 20:54:22;;;;;;;1.77;1.15;;;;;;;;;;10350084;28;20056;-50
2022/11/04 20:59:22;;;;;;;2.08;1.35;;;;;;;;;;10321285;28;20043;-54
2022/11/04 21:04:22;;;;;;;1.35;1.20;;;;;;;;;;10338567;28;20081;-50
2022/11/04 21:09:22;;;;;;;4.35;1.25;;;;;;;;;;10320628;28;20035;-51
2022/11/04 21:14:23;;;;;;;1.50;1.40;;;;;;;;;;10320684;28;20035;-50
2022/11/04 21:19:23;;;;;;;1.48;1.20;;;;;;;;;;10330062;28;20089;-52
2022/11/04 21:24:23;;;;;;;1.80;1.37;;;;;;;;;;10351325;28;20030;-52
2022/11/04 21:29:24;;;;;;;1.63;1.33;;;;;;;;;;10352760;28;20488;-51
2022/11/04 21:34:24;;;;;;;1.33;1.10;;;;;;;;;;10340836;28;20033;-55
2022/11/04 21:39:25;;;;;;;3.78;1.25;;;;;;;;;;10337096;28;20049;-52
2022/11/04 21:44:25;;;;;;;3.25;1.13;;;;;;;;;;10328360;28;20026;-53
2022/11/04 21:49:26;;;;;;;1.38;1.13;;;;;;;;;;10328035;28;20026;-54
2022/11/04 21:54:26;;;;;;;1.67;1.20;;;;;;;;;;10332988;28;20405;-57
2022/11/04 21:59:26;;;;;;;1.83;1.20;;;;;;;;;;10329467;28;20034;-54
2022/11/04 22:04:26;;;;;;;4.07;1.05;;;;;;;;;;10331841;28;20030;-50
2022/11/04 22:09:27;;;;;;;4.50;1.48;;;;;;;;;;10317834;28;20043;-47
2022/11/04 22:14:28;;;;;;;3.65;1.58;;;;;;;;;;10329734;28;20033;-47
2022/11/04 22:19:28;;;;;;;6.22;1.40;;;;;;;;;;10325198;28;20022;-49
2022/11/04 22:24:28;;;;;;;2.92;1.25;;;;;;;;;;10324754;28;20096;-51
2022/11/04 22:29:29;;;;;;;3.47;1.20;;;;;;;;;;10330678;28;20434;-53
2022/11/04 22:34:29;;;;;;;2.60;1.50;;;;;;;;;;10313433;28;20033;-48
2022/11/04 22:39:30;;;;;;;4.72;1.40;;;;;;;;;;10344391;28;20056;-50
2022/11/04 22:44:30;;;;;;;1.98;1.30;;;;;;;;;;10329340;28;20037;-54
2022/11/04 22:49:30;;;;;;;7.95;1.77;;;;;;;;;;10326305;28;20176;-55
2022/11/04 22:54:30;;;;;;;10.88;1.90;;;;;;;;;;10333657;28;20458;-51
2022/11/04 22:59:31;;;;;;;14.45;2.33;;;;;;;;;;10325738;28;20549;-49
2022/11/04 23:04:31;;;;;;;12.50;2.10;;;;;;;;;;10332389;28;20202;-49
2022/11/04 23:09:32;;;;;;;9.30;2.08;;;;;;;;;;10322049;28;20026;-59
2022/11/04 23:19:39;;;;;;;12.23;1.85;;;;;;;;;;10330612;28;20027;-55
2022/11/04 23:40:38;;;;;;;15.05;2.10;;;;;;;;;;10329162;28;20055;-56
